Flight Track Log - Related Links

Times and Time Zones

All times are in EDT time to prevent confusion due to time zone crossing. See the SWA3317 flight status page for this flight to view local times or setup timezone preferences in your user account.

Time Position Orientation Groundspeed Altitude Reporting Facility
EDT Latitude Longitude Course Direction KTS MPH feet Rate Location/Type
Sat 11:23:04 AM 41.7833 -87.8000 90° East 215 247 2,700  Level Chicago TRACON
Sat 11:23:46 AM 41.8203 -87.7833 19° North 226 260 3,100 750 Climbing Chicago Center
Sat 11:24:48 AM 41.8147 -87.7017 95° East 231 266 4,000 919 Climbing Chicago Center
Sat 11:25:50 AM 41.8208 -87.5856 86° East 251 289 5,000 1,171 Climbing Chicago Center
Sat 11:26:51 AM 41.8244 -87.4811 87° East 273 314 6,400 2,390 Climbing Chicago Center
Sat 11:27:53 AM 41.8206 -87.3761 93° East 281 323 9,900 3,242 Climbing Chicago Center
Sat 11:28:00 AM 41.7500 -86.8468 90° East  Level FlightAware Approximate
Sat 11:28:55 AM 41.7986 -87.2650 105° East 305 351 13,100  Level Chicago Center
Sat 11:29:57 AM 41.7761 -87.1381 103° East 340 391 15,100 2,323 Climbing Chicago Center
Sat 11:30:59 AM 41.7717 -86.9969 92° East 382 440 17,900 2,780 Climbing Chicago Center
Sat 11:32:00 AM 41.7903 -86.8228 82° East 393 452 20,800 2,585 Climbing Chicago Center
Sat 11:33:02 AM 41.8067 -86.6697 82° East 408 470 23,200 2,226 Climbing Chicago Center
Sat 11:34:04 AM 41.8236 -86.5117 82° East 424 488 25,400 2,032 Climbing Chicago Center
Sat 11:35:06 AM 41.8406 -86.3486 82° East 437 503 27,400 1,854 Climbing Chicago Center
Sat 11:36:07 AM 41.8575 -86.1817 82° East 450 518 29,200 1,854 Climbing Chicago Center
Sat 11:37:09 AM 41.8753 -86.0100 82° East 462 532 31,200 1,984 Climbing Chicago Center
Sat 11:38:11 AM 41.8922 -85.8422 82° East 455 524 33,300 1,790 Climbing Chicago Center
Sat 11:39:13 AM 41.9094 -85.6742 82° East 453 521 34,900 1,512 Climbing Chicago Center
Sat 11:40:14 AM 41.9256 -85.5064 83° East 451 519 36,400 1,024 Climbing Chicago Center
Sat 11:41:16 AM 41.9425 -85.3372 82° East 453 521 37,000 290 Climbing Chicago Center
Sat 11:42:18 AM 41.9528 -85.1350 86° East 458 527 37,000  Level Chicago Center
Sat 11:43:19 AM 41.9508 -84.9661 91° East 456 525 37,000  Level Chicago Center
Sat 11:44:21 AM 41.9497 -84.7967 90° East 453 521 37,000  Level Chicago Center
Sat 11:45:24 AM 41.9689 -84.6344 81° East 445 512 37,000  Level Chicago Center
Sat 11:46:24 AM 41.9894 -84.4653 81° East 441 507 37,000  Level Chicago Center
Sat 11:47:08 AM 42.0033 -84.3425 81° East 441 507 37,000  Level Cleveland Center
Sat 11:48:10 AM 42.0203 -84.1967 81° East 441 507 37,000  Level Cleveland Center
Sat 11:49:12 AM 42.0378 -84.0342 82° East 442 509 37,000  Level Cleveland Center
Sat 11:50:13 AM 42.0592 -83.8397 82° East 442 509 37,000  Level Cleveland Center
Sat 11:51:15 AM 42.0783 -83.6769 81° East 443 510 37,000  Level Cleveland Center
Sat 11:52:17 AM 42.0975 -83.4964 82° East 445 512 37,000  Level Cleveland Center
Sat 11:53:19 AM 42.1158 -83.3300 81° East 446 513 37,000  Level Cleveland Center
Sat 11:54:20 AM 42.1342 -83.1606 82° East 445 512 37,000  Level Cleveland Center
Sat 11:55:22 AM 42.1522 -82.9972 81° East 444 511 37,000 290 Level Cleveland Center
Sat 11:56:24 AM 42.1694 -82.8331 82° East 446 513 37,600 919 Climbing Cleveland Center
Sat 11:57:26 AM 42.1867 -82.6689 82° East 445 512 38,900 683 Climbing Cleveland Center
Sat 11:58:27 AM 42.2036 -82.5050 82° East 444 511 39,000 49 Climbing Cleveland Center
Sat 11:59:29 AM 42.2189 -82.3414 83° East 442 509 39,000  Level Cleveland Center
Sat 12:00:31 PM 42.2356 -82.1781 82° East 442 509 39,000  Level Cleveland Center
Sat 12:01:32 PM 42.2536 -81.9992 82° East 443 510 39,000  Level Cleveland Center
Sat 12:02:34 PM 42.2683 -81.8328 83° East 441 507 39,000  Level Cleveland Center
Sat 12:03:36 PM 42.2872 -81.6383 82° East 443 510 39,000  Level Cleveland Center
Sat 12:04:37 PM 42.3025 -81.4733 83° East 440 506 39,000  Level Cleveland Center
Sat 12:05:39 PM 42.3178 -81.3058 83° East 442 509 39,000  Level Cleveland Center
Sat 12:06:41 PM 42.3328 -81.1397 83° East 442 509 39,000  Level Cleveland Center
Sat 12:07:43 PM 42.3469 -80.9733 83° East 441 507 39,000  Level Cleveland Center
Sat 12:08:44 PM 42.3619 -80.8069 83° East 442 509 39,000  Level Cleveland Center
Sat 12:09:46 PM 42.3758 -80.6417 83° East 439 505 39,000  Level Cleveland Center
Sat 12:10:48 PM 42.3903 -80.4750 83° East 441 507 39,000  Level Cleveland Center
Sat 12:11:49 PM 42.4042 -80.3069 84° East 445 512 39,000  Level Cleveland Center
Sat 12:12:51 PM 42.4175 -80.1414 84° East 440 506 39,000  Level Cleveland Center
Sat 12:13:53 PM 42.4311 -79.9744 84° East 442 509 39,000  Level Cleveland Center
Sat 12:14:55 PM 42.4458 -79.7786 84° East 438 504 39,000  Level Cleveland Center
Sat 12:15:56 PM 42.4589 -79.6158 84° East 438 504 39,000  Level Cleveland Center
Sat 12:16:58 PM 42.4697 -79.4689 84° East 436 502 39,000  Level Cleveland Center
Sat 12:18:00 PM 42.4817 -79.3061 84° East 436 502 39,000  Level Cleveland Center
Sat 12:19:02 PM 42.4953 -79.1089 85° East 440 506 39,000  Level Cleveland Center
Sat 12:20:04 PM 42.5072 -78.9436 84° East 441 507 39,000  Level Cleveland Center
Sat 12:21:06 PM 42.5175 -78.7783 85° East 443 510 39,000  Level Cleveland Center
Sat 12:22:07 PM 42.5294 -78.6119 84° East 445 512 39,000  Level Cleveland Center
Sat 12:23:09 PM 42.5408 -78.4458 85° East 443 510 39,000  Level Cleveland Center
Sat 12:24:11 PM 42.5519 -78.2772 85° East 447 514 39,000  Level Cleveland Center
Sat 12:25:13 PM 42.5639 -78.0739 85° East 452 520 39,000  Level Cleveland Center
Sat 12:26:15 PM 42.5742 -77.9067 85° East 450 518 39,000  Level Cleveland Center
Sat 12:27:17 PM 42.5833 -77.7369 86° East 449 517 39,000  Level Cleveland Center
Sat 12:28:19 PM 42.5942 -77.5681 85° East 450 518 39,000  Level Cleveland Center
Sat 12:29:21 PM 42.6050 -77.3828 85° East 447 514 39,000  Level Cleveland Center
Sat 12:30:23 PM 42.6144 -77.2147 86° East 449 517 39,000  Level Cleveland Center
Sat 12:31:25 PM 42.6231 -77.0481 86° East 445 512 39,000  Level Cleveland Center
Sat 12:32:15 PM 42.6300 -76.9139 86° East 446 513 39,000  Level Boston Center
Sat 12:33:15 PM 42.6383 -76.7472 86° East 446 513 39,000  Level Boston Center
Sat 12:34:19 PM 42.6469 -76.5803 86° East 446 513 39,000  Level Boston Center
Sat 12:35:19 PM 42.6556 -76.4128 86° East 446 513 39,000  Level Boston Center
Sat 12:36:22 PM 42.6644 -76.2303 86° East 446 513 39,000 -435 Level Boston Center
Sat 12:37:23 PM 42.6725 -76.0633 86° East 446 513 38,100 -968 Descending Boston Center
Sat 12:38:26 PM 42.6800 -75.8631 87° East 445 512 37,000 -532 Descending Boston Center
Sat 12:39:27 PM 42.6878 -75.6942 86° East 450 518 37,000  Level Boston Center
Sat 12:40:30 PM 42.6928 -75.5256 88° East 451 519 37,000  Level Boston Center
Sat 12:41:31 PM 42.7003 -75.3592 86° East 447 514 37,000  Level Boston Center
Sat 12:42:31 PM 42.7053 -75.1900 88° East 452 520 37,000  Level Boston Center
Sat 12:43:36 PM 42.7108 -75.0169 87° East 461 531 37,000  Level Boston Center
Sat 12:44:36 PM 42.7186 -74.8175 87° East 446 513 37,000  Level Boston Center
Sat 12:45:36 PM 42.7231 -74.6536 88° East 441 507 37,000  Level Boston Center
Sat 12:46:40 PM 42.7289 -74.4875 87° East 441 507 37,000  Level Boston Center
Sat 12:47:40 PM 42.7336 -74.3206 88° East 443 510 37,000  Level Boston Center
Sat 12:48:44 PM 42.7389 -74.1558 87° East 439 505 37,000  Level Boston Center
Sat 12:49:45 PM 42.7428 -73.9775 88° East 442 509 37,000  Level Boston Center
Sat 12:50:45 PM 42.7467 -73.8094 88° East 444 511 37,000  Level Boston Center
Sat 12:51:49 PM 42.7311 -73.6378 97° East 455 524 37,000  Level Boston Center
Sat 12:52:49 PM 42.7122 -73.4675 99° East 456 525 37,000 -397 Level Boston Center
Sat 12:53:50 PM 42.6939 -73.2958 98° East 457 526 36,200 -2,160 Descending Boston Center
Sat 12:54:54 PM 42.6714 -73.0892 98° East 457 526 32,500 -2,928 Descending Boston Center
Sat 12:55:55 PM 42.6547 -72.9275 98° East 460 529 30,100 -2,311 Descending Boston Center
Sat 12:56:56 PM 42.6342 -72.7625 100° East 444 511 27,800 -2,262 Descending Boston Center
Sat 12:57:57 PM 42.6144 -72.6058 100° East 432 497 25,500 -2,226 Descending Boston Center
Sat 12:59:00 PM 42.5956 -72.4494 99° East 415 478 23,200 -2,371 Descending Boston Center
Sat 01:00:01 PM 42.5747 -72.2719 99° East 397 457 20,600 -2,182 Descending Boston Center
Sat 01:01:01 PM 42.5556 -72.1311 100° East 388 447 18,800 -1,951 Descending Boston Center
Sat 01:02:04 PM 42.5403 -71.9864 98° East 366 421 16,600 -2,032 Descending Boston Center
Sat 01:03:05 PM 42.5278 -71.8508 97° East 367 422 14,600 -1,920 Descending Boston Center
Sat 01:04:09 PM 42.5156 -71.7214 97° East 352 405 12,600 -1,750 Descending Boston Center
Sat 01:05:05 PM 42.5000 -71.5833 99° East 339 390 11,100 -818 Descending KA90
Sat 01:05:59 PM 42.5000 -71.4833 90° East 328 377 11,100 -150 Level KA90
Sat 01:07:05 PM 42.4833 -71.3500 100° East 318 366 10,800 -810 Descending KA90
Sat 01:08:05 PM 42.4667 -71.2333 101° East 292 336 9,400 -887 Descending KA90
Sat 01:09:00 PM 42.4667 -71.1333 90° East 287 330 9,100 -397 Descending KA90
Sat 01:10:06 PM 42.4500 -71.0333 103° East 243 280 8,600 -714 Descending KA90
Sat 01:11:06 PM 42.3833 -70.9833 151° Southeast 254 292 7,600 -1,000 Descending KA90
Sat 01:11:54 PM 42.3333 -70.9500 154° Southeast 250 288 6,800 -1,389 Descending KA90
Sat 01:12:54 PM 42.2667 -70.9500 180° South 248 285 5,100 -1,286 Descending KA90
Sat 01:14:00 PM 42.2000 -70.9667 190° South 225 259 4,100 -1,000 Descending KA90
Sat 01:14:54 PM 42.1833 -71.0333 251° West 200 230 3,100 -714 Descending KA90
Sat 01:16:06 PM 42.2333 -71.0500 346° North 170 196 2,600 -619 Descending KA90
Sat 01:17:00 PM 42.2667 -71.0500 360° North 171 197 1,800 -842 Descending KA90
Sat 01:18:00 PM 42.3167 -71.0333 14° North 155 178 1,000 -800 Descending KA90
Sat 01:19:00 PM 42.3500 -71.0167 20° North 138 159 200 -800 Descending KA90

Login

Don't have an account? Register now (free) for customized features, flight alerts, and more!